Time;durP1;ratioP1;P1;durP2;ratioP2;P2;SDS_P1;SDS_P2;PMS_P1;PMS_P2;Temp;Humidity;BMP_temperature;BMP_pressure;BME280_temperature;BME280_humidity;BME280_pressure;Samples;Min_cycle;Max_cycle;Signal;HPM_P1;HPM_P2
2022/12/13 00:01:11;;;;;;;4.70;4.30;;;;;;;;;;5057065;28;20033;-63
2022/12/13 00:03:37;;;;;;;4.10;3.42;;;;;;;;;;5056898;28;20029;-63
2022/12/13 00:06:06;;;;;;;4.63;4.22;;;;;;;;;;5056871;28;20016;-63
2022/12/13 00:08:31;;;;;;;4.35;3.95;;;;;;;;;;5056768;28;20033;-62
2022/12/13 00:11:00;;;;;;;4.30;3.97;;;;;;;;;;5056782;28;20024;-63
2022/12/13 00:13:25;;;;;;;5.22;4.70;;;;;;;;;;5056579;28;20040;-63
2022/12/13 00:15:57;;;;;;;5.50;4.68;;;;;;;;;;5056678;28;20025;-63
2022/12/13 00:18:23;;;;;;;4.45;3.50;;;;;;;;;;5056769;28;20037;-63
2022/12/13 00:20:48;;;;;;;4.63;4.22;;;;;;;;;;5038785;28;20400;-63
2022/12/13 00:23:14;;;;;;;3.38;3.08;;;;;;;;;;5056325;28;20048;-63
2022/12/13 00:25:39;;;;;;;4.22;3.83;;;;;;;;;;5056331;28;20139;-63
2022/12/13 00:28:04;;;;;;;4.20;3.80;;;;;;;;;;5056395;28;20468;-63
2022/12/13 00:30:32;;;;;;;4.80;3.88;;;;;;;;;;5038710;28;20044;-63
2022/12/13 00:32:58;;;;;;;4.15;3.80;;;;;;;;;;5056378;28;20549;-63
2022/12/13 00:35:23;;;;;;;5.22;3.90;;;;;;;;;;5056281;28;20024;-63
2022/12/13 00:37:49;;;;;;;4.65;3.78;;;;;;;;;;5070474;28;20471;-63
2022/12/13 00:40:15;;;;;;;4.10;3.72;;;;;;;;;;5076442;28;20032;-63
2022/12/13 00:42:40;;;;;;;3.80;3.45;;;;;;;;;;5076329;28;20043;-63
2022/12/13 00:45:05;;;;;;;4.22;3.83;;;;;;;;;;5076089;28;20025;-64
2022/12/13 00:47:31;;;;;;;4.50;4.13;;;;;;;;;;5076080;28;20021;-63
2022/12/13 00:49:56;;;;;;;4.43;4.03;;;;;;;;;;5075968;28;20466;-63
2022/12/13 00:52:22;;;;;;;4.57;4.18;;;;;;;;;;5058163;28;20037;-63
2022/12/13 00:54:47;;;;;;;4.38;3.97;;;;;;;;;;5076144;28;20025;-63
2022/12/13 00:57:12;;;;;;;5.05;4.53;;;;;;;;;;5075309;28;20469;-63
2022/12/13 00:59:38;;;;;;;3.72;3.42;;;;;;;;;;5075902;28;20017;-63
2022/12/13 01:02:03;;;;;;;4.70;4.30;;;;;;;;;;5075968;28;20032;-63
2022/12/13 01:04:28;;;;;;;5.22;4.60;;;;;;;;;;5075589;28;20029;-63
2022/12/13 01:06:54;;;;;;;4.30;3.90;;;;;;;;;;5075730;28;20036;-63
2022/12/13 01:09:21;;;;;;;3.85;3.45;;;;;;;;;;5075666;28;20016;-63
2022/12/13 01:11:47;;;;;;;4.63;4.18;;;;;;;;;;5075727;28;20120;-63
2022/12/13 01:14:13;;;;;;;4.75;4.20;;;;;;;;;;5075806;28;20064;-63
2022/12/13 01:16:39;;;;;;;5.45;4.43;;;;;;;;;;5075467;28;20029;-63
2022/12/13 01:19:04;;;;;;;4.07;3.70;;;;;;;;;;5075485;28;20074;-63
2022/12/13 01:21:29;;;;;;;3.65;3.35;;;;;;;;;;5075777;28;20078;-63
2022/12/13 01:23:59;;;;;;;6.07;4.82;;;;;;;;;;5075589;28;20016;-63
2022/12/13 01:26:24;;;;;;;5.97;5.33;;;;;;;;;;5075248;28;20056;-63
2022/12/13 01:28:50;;;;;;;4.63;4.22;;;;;;;;;;5057737;28;20052;-63
2022/12/13 01:31:17;;;;;;;4.97;4.38;;;;;;;;;;5075174;28;20024;-62
2022/12/13 01:33:43;;;;;;;4.85;4.35;;;;;;;;;;5075282;28;20025;-63
2022/12/13 01:36:10;;;;;;;4.57;3.92;;;;;;;;;;5074907;28;20036;-63
2022/12/13 01:38:36;;;;;;;4.90;4.43;;;;;;;;;;5075146;28;20476;-63
2022/12/13 01:41:02;;;;;;;5.60;3.92;;;;;;;;;;5075055;28;20121;-63
2022/12/13 01:43:47;;;;;;;5.10;4.47;;;;;;;;;;5075032;28;20031;-63
2022/12/13 01:46:14;;;;;;;4.88;4.47;;;;;;;;;;5074615;28;20028;-63
2022/12/13 01:48:43;;;;;;;5.25;4.38;;;;;;;;;;5075062;28;20478;-63
2022/12/13 01:51:11;;;;;;;3.40;3.17;;;;;;;;;;5074929;28;20024;-63
2022/12/13 01:53:38;;;;;;;4.18;3.70;;;;;;;;;;5074853;28;20523;-63
2022/12/13 01:56:07;;;;;;;4.35;3.95;;;;;;;;;;5074817;28;20035;-63
2022/12/13 01:58:34;;;;;;;4.88;3.42;;;;;;;;;;5074976;28;20433;-63
2022/12/13 02:00:59;;;;;;;3.70;3.40;;;;;;;;;;5075009;28;20033;-63
2022/12/13 02:03:25;;;;;;;3.97;3.67;;;;;;;;;;5074577;28;20078;-63
2022/12/13 02:05:54;;;;;;;4.40;4.00;;;;;;;;;;5057060;28;20060;-63
2022/12/13 02:08:20;;;;;;;3.65;3.38;;;;;;;;;;5074442;28;20443;-63
2022/12/13 02:10:46;;;;;;;4.45;3.97;;;;;;;;;;5073811;28;20029;-63
2022/12/13 02:13:11;;;;;;;4.25;3.85;;;;;;;;;;5074803;28;20146;-63
2022/12/13 02:15:52;;;;;;;3.83;3.58;;;;;;;;;;5074489;28;20040;-63
2022/12/13 02:18:24;;;;;;;3.70;3.35;;;;;;;;;;5074686;28;20035;-63
2022/12/13 02:21:04;;;;;;;3.58;3.28;;;;;;;;;;5074496;28;20039;-63
2022/12/13 02:23:59;;;;;;;4.40;4.00;;;;;;;;;;5074350;28;20405;-63
2022/12/13 02:26:34;;;;;;;3.45;3.15;;;;;;;;;;5052334;28;20048;-63
2022/12/13 02:29:17;;;;;;;3.28;3.08;;;;;;;;;;5074103;28;20044;-63
2022/12/13 02:32:00;;;;;;;3.40;3.10;;;;;;;;;;5074336;28;20033;-63
2022/12/13 02:34:27;;;;;;;3.30;3.10;;;;;;;;;;5074056;28;20039;-63
2022/12/13 02:37:00;;;;;;;3.33;2.95;;;;;;;;;;5078884;28;20083;-63
2022/12/13 02:39:38;;;;;;;4.25;3.47;;;;;;;;;;5076108;28;20032;-63
2022/12/13 02:42:16;;;;;;;3.65;3.35;;;;;;;;;;5094270;28;20070;-63
2022/12/13 02:44:49;;;;;;;3.42;3.13;;;;;;;;;;5094247;28;20024;-64
2022/12/13 02:47:20;;;;;;;4.32;3.92;;;;;;;;;;5094132;28;20118;-63
2022/12/13 02:49:47;;;;;;;3.38;3.08;;;;;;;;;;5094308;28;20443;-63
2022/12/13 02:52:14;;;;;;;3.63;3.33;;;;;;;;;;5094233;28;20458;-63
2022/12/13 02:54:40;;;;;;;3.60;3.25;;;;;;;;;;5094490;28;20093;-62
2022/12/13 02:57:25;;;;;;;4.25;3.88;;;;;;;;;;5094159;28;20494;-63
2022/12/13 02:59:51;;;;;;;4.10;3.80;;;;;;;;;;5094254;28;20035;-63
2022/12/13 03:02:20;;;;;;;3.03;2.72;;;;;;;;;;5094110;28;20032;-63
2022/12/13 03:08:00;;;;;;;3.22;2.95;;;;;;;;;;5094097;28;20024;-63
2022/12/13 03:10:36;;;;;;;3.92;3.50;;;;;;;;;;5094231;28;20024;-63
2022/12/13 03:15:51;;;;;;;2.80;2.60;;;;;;;;;;5094104;28;20093;-63
2022/12/13 03:18:19;;;;;;;4.15;3.85;;;;;;;;;;5094064;28;20658;-63
2022/12/13 03:20:46;;;;;;;3.40;3.10;;;;;;;;;;5095012;28;20043;-63
2022/12/13 03:23:12;;;;;;;2.97;2.78;;;;;;;;;;5098013;28;20024;-63
2022/12/13 03:25:37;;;;;;;3.15;2.95;;;;;;;;;;5098019;28;20573;-63
2022/12/13 03:28:03;;;;;;;2.95;2.75;;;;;;;;;;5097718;28;20022;-63
2022/12/13 03:30:30;;;;;;;3.47;3.22;;;;;;;;;;5079622;28;20050;-63
2022/12/13 03:32:55;;;;;;;2.88;2.67;;;;;;;;;;5098156;28;20023;-62
2022/12/13 03:35:21;;;;;;;3.65;3.45;;;;;;;;;;5097703;28;20028;-62
2022/12/13 03:37:46;;;;;;;3.53;3.33;;;;;;;;;;5097811;28;20043;-62
2022/12/13 03:40:12;;;;;;;3.47;3.17;;;;;;;;;;5097707;28;20474;-63
2022/12/13 03:42:37;;;;;;;3.22;2.92;;;;;;;;;;5079814;28;20350;-63
2022/12/13 03:45:03;;;;;;;3.20;3.00;;;;;;;;;;5097582;28;20476;-63
2022/12/13 03:47:28;;;;;;;4.60;3.60;;;;;;;;;;5097598;28;20023;-63
2022/12/13 03:49:54;;;;;;;3.70;3.40;;;;;;;;;;5097668;28;20454;-63
2022/12/13 03:52:20;;;;;;;3.72;3.10;;;;;;;;;;5097674;28;20054;-63
2022/12/13 03:54:45;;;;;;;4.00;3.60;;;;;;;;;;5097362;28;20028;-63
2022/12/13 03:57:10;;;;;;;4.63;3.70;;;;;;;;;;5097521;28;20392;-63
2022/12/13 03:59:36;;;;;;;3.38;3.08;;;;;;;;;;5096960;28;20082;-62
2022/12/13 04:02:01;;;;;;;3.08;2.85;;;;;;;;;;5097387;28;20024;-63
2022/12/13 04:04:26;;;;;;;4.47;3.58;;;;;;;;;;5097388;28;20070;-63
2022/12/13 04:06:52;;;;;;;4.15;3.85;;;;;;;;;;5097302;28;20015;-63
2022/12/13 04:09:17;;;;;;;4.07;3.78;;;;;;;;;;5097220;28;20028;-63
2022/12/13 04:14:26;;;;;;;3.58;3.30;;;;;;;;;;5097093;28;20047;-63
2022/12/13 04:16:53;;;;;;;4.18;3.83;;;;;;;;;;5097180;28;20024;-63
2022/12/13 04:19:18;;;;;;;4.03;3.72;;;;;;;;;;5096971;28;20474;-63
2022/12/13 04:21:43;;;;;;;3.88;3.55;;;;;;;;;;5096799;28;20067;-63
2022/12/13 04:24:09;;;;;;;4.18;3.80;;;;;;;;;;5097016;28;20028;-63
2022/12/13 04:26:34;;;;;;;3.17;2.97;;;;;;;;;;5096736;28;20058;-63
2022/12/13 04:28:59;;;;;;;4.10;3.70;;;;;;;;;;5096798;28;20047;-63
2022/12/13 04:31:25;;;;;;;4.43;3.92;;;;;;;;;;5096893;28;20019;-63
2022/12/13 04:33:51;;;;;;;3.88;3.58;;;;;;;;;;5095962;28;20028;-63
2022/12/13 04:36:18;;;;;;;4.47;4.07;;;;;;;;;;5096311;28;20056;-63
2022/12/13 04:38:46;;;;;;;4.85;4.43;;;;;;;;;;5096676;28;20044;-63
2022/12/13 04:41:17;;;;;;;4.72;4.32;;;;;;;;;;5096414;28;20024;-63
2022/12/13 04:43:43;;;;;;;4.85;4.45;;;;;;;;;;5096392;28;20036;-63
2022/12/13 04:46:10;;;;;;;4.57;4.15;;;;;;;;;;5096891;28;20016;-63
2022/12/13 04:48:35;;;;;;;4.90;4.40;;;;;;;;;;5096422;28;20120;-63
2022/12/13 04:51:01;;;;;;;4.70;4.30;;;;;;;;;;5096448;28;20059;-63
2022/12/13 04:53:27;;;;;;;5.22;4.75;;;;;;;;;;5096190;28;20436;-63
2022/12/13 04:55:52;;;;;;;4.93;4.22;;;;;;;;;;5096464;28;20016;-63
2022/12/13 04:58:18;;;;;;;4.95;4.45;;;;;;;;;;5096314;28;20097;-63
2022/12/13 05:00:44;;;;;;;5.40;4.88;;;;;;;;;;5096023;28;20028;-63
2022/12/13 05:03:09;;;;;;;5.50;5.00;;;;;;;;;;5096242;28;20024;-63
2022/12/13 05:05:39;;;;;;;5.43;5.03;;;;;;;;;;5095859;28;20008;-63
2022/12/13 05:08:05;;;;;;;6.50;5.15;;;;;;;;;;5096343;28;20028;-63
2022/12/13 05:10:30;;;;;;;6.90;5.70;;;;;;;;;;5096106;28;20474;-63
2022/12/13 05:12:57;;;;;;;6.68;6.07;;;;;;;;;;5095936;28;20350;-63
2022/12/13 05:15:23;;;;;;;5.07;4.63;;;;;;;;;;5077797;28;20018;-63
2022/12/13 05:17:48;;;;;;;5.80;5.20;;;;;;;;;;5095581;28;20110;-63
2022/12/13 05:20:13;;;;;;;5.32;4.93;;;;;;;;;;5095754;28;20026;-64
2022/12/13 05:22:39;;;;;;;4.63;4.25;;;;;;;;;;5077479;28;20032;-63
2022/12/13 05:25:05;;;;;;;6.35;5.72;;;;;;;;;;5095617;28;20028;-64
2022/12/13 05:27:30;;;;;;;8.30;6.07;;;;;;;;;;5095472;28;20471;-63
2022/12/13 05:29:56;;;;;;;4.70;4.38;;;;;;;;;;5095468;28;20103;-64
2022/12/13 05:32:21;;;;;;;5.55;5.05;;;;;;;;;;5095114;28;20032;-63
2022/12/13 05:34:47;;;;;;;7.25;6.55;;;;;;;;;;5095697;28;20058;-63
2022/12/13 05:37:12;;;;;;;7.15;6.45;;;;;;;;;;5095408;28;20543;-63
2022/12/13 05:39:38;;;;;;;7.75;6.90;;;;;;;;;;5095436;28;20032;-63
2022/12/13 05:42:04;;;;;;;6.40;5.80;;;;;;;;;;5095502;28;20035;-63
2022/12/13 05:44:30;;;;;;;4.97;4.55;;;;;;;;;;5095270;28;20024;-63
2022/12/13 05:46:56;;;;;;;5.93;5.43;;;;;;;;;;5094518;28;20024;-63
2022/12/13 05:49:21;;;;;;;5.60;5.10;;;;;;;;;;5094907;28;20023;-63
2022/12/13 05:51:46;;;;;;;8.05;5.55;;;;;;;;;;5095138;28;20024;-63
2022/12/13 05:54:12;;;;;;;18.95;8.02;;;;;;;;;;5094905;28;20046;-63
2022/12/13 05:56:37;;;;;;;6.03;4.88;;;;;;;;;;5094556;28;20107;-63
2022/12/13 05:59:02;;;;;;;12.82;7.32;;;;;;;;;;5094021;28;20012;-63
2022/12/13 06:01:28;;;;;;;9.38;7.30;;;;;;;;;;5094033;28;20039;-63
2022/12/13 06:03:53;;;;;;;6.70;6.03;;;;;;;;;;5094208;28;20035;-63
2022/12/13 06:06:20;;;;;;;6.70;5.85;;;;;;;;;;5094181;28;20077;-63
2022/12/13 06:08:45;;;;;;;5.68;5.18;;;;;;;;;;5093564;28;20069;-64
2022/12/13 06:11:10;;;;;;;9.98;6.68;;;;;;;;;;5093003;28;20032;-63
2022/12/13 06:13:36;;;;;;;8.15;5.38;;;;;;;;;;5074992;28;20023;-63
2022/12/13 06:16:03;;;;;;;7.00;6.03;;;;;;;;;;5093150;28;20050;-63
2022/12/13 06:18:32;;;;;;;8.13;6.75;;;;;;;;;;5092565;28;20466;-64
2022/12/13 06:20:59;;;;;;;14.57;11.18;;;;;;;;;;5093138;28;20130;-64
2022/12/13 06:23:25;;;;;;;13.30;8.18;;;;;;;;;;5092949;28;20074;-63
2022/12/13 06:25:50;;;;;;;7.55;4.82;;;;;;;;;;5093047;28;20059;-63
2022/12/13 06:28:16;;;;;;;9.50;6.40;;;;;;;;;;5092704;28;20016;-63
2022/12/13 06:30:42;;;;;;;10.98;5.75;;;;;;;;;;5093234;28;20028;-63
2022/12/13 06:33:07;;;;;;;5.93;4.88;;;;;;;;;;5092902;28;20016;-63
2022/12/13 06:35:33;;;;;;;6.00;4.97;;;;;;;;;;5092920;28;20038;-63
2022/12/13 06:37:58;;;;;;;8.07;4.55;;;;;;;;;;5092335;28;20804;-63
2022/12/13 06:40:24;;;;;;;6.15;5.20;;;;;;;;;;5092200;28;20028;-62
2022/12/13 06:42:50;;;;;;;8.02;6.40;;;;;;;;;;5074663;28;20093;-63
2022/12/13 06:45:15;;;;;;;8.07;5.72;;;;;;;;;;5092385;28;20028;-63
2022/12/13 06:47:40;;;;;;;7.22;6.03;;;;;;;;;;5092538;28;20048;-63
2022/12/13 06:50:06;;;;;;;10.35;6.47;;;;;;;;;;5093402;28;20016;-63
2022/12/13 06:52:31;;;;;;;8.40;6.35;;;;;;;;;;5093525;28;20023;-63
2022/12/13 06:54:57;;;;;;;12.05;8.73;;;;;;;;;;5092846;28;20441;-63
2022/12/13 06:57:23;;;;;;;12.40;8.63;;;;;;;;;;5093636;28;20535;-63
2022/12/13 06:59:49;;;;;;;9.07;6.60;;;;;;;;;;5094200;28;20119;-63
2022/12/13 07:02:14;;;;;;;8.90;7.47;;;;;;;;;;5093853;28;20059;-63
2022/12/13 07:04:39;;;;;;;11.35;9.43;;;;;;;;;;5092813;28;20036;-63
2022/12/13 07:07:05;;;;;;;13.27;10.38;;;;;;;;;;5091907;28;20023;-63
2022/12/13 07:09:31;;;;;;;13.05;9.70;;;;;;;;;;5092493;28;20494;-63
2022/12/13 07:11:56;;;;;;;15.65;10.07;;;;;;;;;;5092831;28;20546;-63
2022/12/13 07:14:21;;;;;;;14.80;10.52;;;;;;;;;;5091402;28;20497;-63
2022/12/13 07:16:46;;;;;;;11.90;8.07;;;;;;;;;;5072375;28;20080;-63
2022/12/13 07:19:12;;;;;;;7.40;5.75;;;;;;;;;;5090809;28;20024;-63
2022/12/13 07:21:38;;;;;;;10.98;8.98;;;;;;;;;;5090078;28;20047;-63
2022/12/13 07:24:04;;;;;;;10.82;8.50;;;;;;;;;;5090377;28;20514;-63
2022/12/13 07:26:29;;;;;;;11.80;8.90;;;;;;;;;;5090125;28;20024;-64
2022/12/13 07:28:55;;;;;;;10.63;7.82;;;;;;;;;;5090350;28;20130;-63
2022/12/13 07:43:55;;;;;;;11.95;9.10;;;;;;;;;;5089792;27;20481;-71
2022/12/13 07:46:20;;;;;;;16.38;12.90;;;;;;;;;;5089769;28;20060;-74
2022/12/13 07:48:46;;;;;;;17.42;13.23;;;;;;;;;;5071639;28;20028;-74
2022/12/13 07:51:11;;;;;;;15.18;10.90;;;;;;;;;;5089601;28;20036;-74
2022/12/13 07:53:37;;;;;;;15.40;11.48;;;;;;;;;;5089625;28;20085;-74
2022/12/13 07:56:04;;;;;;;14.77;10.40;;;;;;;;;;5089386;28;20036;-74
2022/12/13 07:58:29;;;;;;;14.82;9.80;;;;;;;;;;5089316;28;20066;-74
2022/12/13 08:00:58;;;;;;;12.20;9.20;;;;;;;;;;5089529;28;20021;-74
2022/12/13 08:03:23;;;;;;;11.30;9.13;;;;;;;;;;5088229;28;20036;-74
2022/12/13 08:05:48;;;;;;;9.70;7.22;;;;;;;;;;5088153;28;20108;-74
2022/12/13 08:08:14;;;;;;;7.53;6.40;;;;;;;;;;5087780;28;20581;-74
2022/12/13 08:10:39;;;;;;;11.60;8.07;;;;;;;;;;5089251;28;20032;-74
2022/12/13 08:13:04;;;;;;;8.95;7.03;;;;;;;;;;5070875;28;20390;-72
2022/12/13 08:15:30;;;;;;;9.25;7.20;;;;;;;;;;5087898;28;20032;-72
2022/12/13 08:17:56;;;;;;;9.90;7.82;;;;;;;;;;5089192;28;20024;-72
2022/12/13 08:20:21;;;;;;;12.15;7.07;;;;;;;;;;5087937;28;20036;-71
2022/12/13 08:22:56;;;;;;;11.30;7.15;;;;;;;;;;5088810;28;20028;-70
2022/12/13 08:25:22;;;;;;;10.52;6.22;;;;;;;;;;5089090;28;20029;-70
2022/12/13 08:27:47;;;;;;;10.50;7.05;;;;;;;;;;5089026;28;20028;-70
2022/12/13 08:30:13;;;;;;;13.75;7.47;;;;;;;;;;5087736;28;20125;-70
2022/12/13 08:32:38;;;;;;;10.57;6.50;;;;;;;;;;5088809;28;20123;-70
2022/12/13 08:35:03;;;;;;;12.40;6.60;;;;;;;;;;5088907;28;20097;-72
2022/12/13 08:37:29;;;;;;;11.60;7.32;;;;;;;;;;5088829;28;20372;-71
2022/12/13 08:39:54;;;;;;;9.48;7.20;;;;;;;;;;5087634;28;20037;-71
2022/12/13 08:42:20;;;;;;;10.55;7.47;;;;;;;;;;5088608;28;20048;-71
2022/12/13 08:44:48;;;;;;;8.40;6.00;;;;;;;;;;5076152;28;20041;-70
2022/12/13 08:47:14;;;;;;;6.90;5.10;;;;;;;;;;5073971;28;20124;-70
2022/12/13 08:49:40;;;;;;;5.43;4.85;;;;;;;;;;5075213;28;20108;-69
2022/12/13 08:52:05;;;;;;;7.07;5.88;;;;;;;;;;5074743;28;20029;-70
2022/12/13 08:54:34;;;;;;;7.82;6.68;;;;;;;;;;5074958;28;20020;-70
2022/12/13 08:57:00;;;;;;;8.95;5.80;;;;;;;;;;5074871;28;20009;-70
2022/12/13 08:59:26;;;;;;;7.93;5.50;;;;;;;;;;5074940;28;20387;-70
2022/12/13 09:01:51;;;;;;;8.45;5.70;;;;;;;;;;5074919;28;20028;-71
2022/12/13 09:04:16;;;;;;;6.45;4.38;;;;;;;;;;5056821;28;20125;-71
2022/12/13 09:06:42;;;;;;;4.63;4.22;;;;;;;;;;5074516;28;20050;-71
2022/12/13 09:09:08;;;;;;;6.95;5.53;;;;;;;;;;5073608;28;20407;-71
2022/12/13 09:11:33;;;;;;;5.90;5.25;;;;;;;;;;5074910;28;20410;-71
2022/12/13 09:13:58;;;;;;;4.78;3.33;;;;;;;;;;5074670;28;20025;-71
2022/12/13 09:16:24;;;;;;;5.47;4.40;;;;;;;;;;5073367;28;20419;-71
2022/12/13 09:18:50;;;;;;;5.95;4.82;;;;;;;;;;5074578;28;20498;-71
2022/12/13 09:21:16;;;;;;;4.88;4.20;;;;;;;;;;5074441;28;20030;-71
2022/12/13 09:23:41;;;;;;;6.03;5.20;;;;;;;;;;5074500;28;20145;-71
2022/12/13 09:26:07;;;;;;;7.05;6.35;;;;;;;;;;5074606;28;20078;-71
2022/12/13 09:28:33;;;;;;;7.18;5.15;;;;;;;;;;5074466;28;20029;-71
2022/12/13 09:30:59;;;;;;;5.28;4.45;;;;;;;;;;5072958;28;20043;-74
2022/12/13 09:33:25;;;;;;;4.85;4.45;;;;;;;;;;5074255;28;20551;-74
2022/12/13 09:35:51;;;;;;;5.60;4.72;;;;;;;;;;5073062;28;20463;-74
2022/12/13 09:38:16;;;;;;;5.38;4.75;;;;;;;;;;5072968;28;20398;-74
2022/12/13 09:40:44;;;;;;;7.00;5.43;;;;;;;;;;5073704;28;20012;-74
2022/12/13 09:43:13;;;;;;;4.63;4.22;;;;;;;;;;5072619;28;20087;-73
2022/12/13 09:45:42;;;;;;;4.53;4.03;;;;;;;;;;5074088;28;20105;-75
2022/12/13 09:48:07;;;;;;;5.18;4.78;;;;;;;;;;5056333;28;20372;-75
2022/12/13 09:50:33;;;;;;;4.75;4.35;;;;;;;;;;5074132;28;20031;-75
2022/12/13 09:53:01;;;;;;;3.83;3.45;;;;;;;;;;5073122;28;20036;-73
2022/12/13 09:55:44;;;;;;;3.50;3.20;;;;;;;;;;5072476;28;20340;-73
2022/12/13 09:58:36;;;;;;;3.50;3.17;;;;;;;;;;5074714;28;20058;-73
2022/12/13 10:01:03;;;;;;;4.35;3.85;;;;;;;;;;5074362;28;20060;-73
2022/12/13 10:03:31;;;;;;;4.93;4.43;;;;;;;;;;5074653;28;20008;-73
2022/12/13 10:06:00;;;;;;;6.25;5.15;;;;;;;;;;5072904;28;20036;-76
2022/12/13 10:08:39;;;;;;;4.43;3.92;;;;;;;;;;5074408;28;20036;-73
2022/12/13 10:11:04;;;;;;;4.80;3.97;;;;;;;;;;5072069;28;20426;-74
2022/12/13 10:13:40;;;;;;;3.90;3.60;;;;;;;;;;5073334;28;20070;-73
2022/12/13 10:16:21;;;;;;;5.30;4.78;;;;;;;;;;5072397;28;20471;-76
2022/12/13 10:18:46;;;;;;;;;;;;;;;;;;5073791;28;20051;-76
2022/12/13 10:21:14;;;;;;;4.23;3.53;;;;;;;;;;5073132;28;19989;-76
2022/12/13 10:23:39;;;;;;;5.57;3.75;;;;;;;;;;5073427;28;20266;-76
2022/12/13 10:26:09;;;;;;;4.50;3.67;;;;;;;;;;5071949;28;20108;-74
2022/12/13 10:28:35;;;;;;;6.05;4.53;;;;;;;;;;5073236;28;20042;-74
2022/12/13 10:31:01;;;;;;;5.60;5.00;;;;;;;;;;5073188;28;20012;-74
2022/12/13 10:33:30;;;;;;;4.35;4.05;;;;;;;;;;5073091;28;20029;-71
2022/12/13 10:36:02;;;;;;;4.32;3.92;;;;;;;;;;5071826;28;20440;-71
2022/12/13 10:38:28;;;;;;;5.18;4.68;;;;;;;;;;5073012;28;20020;-71
2022/12/13 10:40:54;;;;;;;5.32;4.80;;;;;;;;;;5072969;28;20020;-71
2022/12/13 10:43:21;;;;;;;4.88;4.47;;;;;;;;;;5072727;28;20044;-73
2022/12/13 10:45:56;;;;;;;6.63;5.13;;;;;;;;;;5072920;28;20075;-72
2022/12/13 10:48:40;;;;;;;9.27;6.65;;;;;;;;;;5073178;28;20054;-71
2022/12/13 10:51:08;;;;;;;9.65;6.40;;;;;;;;;;5072806;28;20115;-72
2022/12/13 10:53:35;;;;;;;10.63;6.72;;;;;;;;;;5072430;28;20048;-73
2022/12/13 10:56:01;;;;;;;11.23;8.05;;;;;;;;;;5072790;28;20032;-74
2022/12/13 10:58:33;;;;;;;10.13;7.18;;;;;;;;;;5071376;28;20451;-74
2022/12/13 11:01:07;;;;;;;10.75;7.60;;;;;;;;;;5072630;28;20027;-74
2022/12/13 11:03:33;;;;;;;11.35;7.15;;;;;;;;;;5055081;28;20475;-75
2022/12/13 11:06:11;;;;;;;6.85;5.43;;;;;;;;;;5072159;28;20020;-75
2022/12/13 11:08:37;;;;;;;6.32;5.13;;;;;;;;;;5072676;28;20036;-75
2022/12/13 11:11:03;;;;;;;8.70;7.65;;;;;;;;;;5072024;28;20070;-75
2022/12/13 11:13:36;;;;;;;5.93;5.40;;;;;;;;;;5071093;28;20024;-74
2022/12/13 11:16:03;;;;;;;5.15;4.25;;;;;;;;;;5071007;28;20386;-75
2022/12/13 11:18:33;;;;;;;6.18;5.55;;;;;;;;;;5072481;28;20020;-75
2022/12/13 11:21:01;;;;;;;7.22;6.00;;;;;;;;;;5071300;28;20070;-73
2022/12/13 11:23:29;;;;;;;6.80;6.10;;;;;;;;;;5072378;28;20016;-73
2022/12/13 11:25:56;;;;;;;8.00;5.82;;;;;;;;;;5072441;28;20070;-74
2022/12/13 11:28:27;;;;;;;5.65;5.10;;;;;;;;;;5072111;28;20044;-74
2022/12/13 11:30:56;;;;;;;7.43;6.28;;;;;;;;;;5071069;28;20029;-73
2022/12/13 11:33:26;;;;;;;6.00;5.07;;;;;;;;;;5071110;28;20032;-76
2022/12/13 11:36:00;;;;;;;7.35;6.22;;;;;;;;;;5070930;28;20502;-76
2022/12/13 11:38:38;;;;;;;8.60;6.80;;;;;;;;;;5072328;28;20036;-76
2022/12/13 11:41:11;;;;;;;8.15;6.15;;;;;;;;;;5071074;28;20399;-76
2022/12/13 11:43:48;;;;;;;9.90;7.57;;;;;;;;;;5072050;28;20040;-76
2022/12/13 11:46:19;;;;;;;7.82;6.03;;;;;;;;;;5071810;28;20032;-73
2022/12/13 11:48:54;;;;;;;9.73;7.18;;;;;;;;;;5071216;28;20037;-76
2022/12/13 11:51:34;;;;;;;8.55;7.30;;;;;;;;;;5072394;28;20039;-75
2022/12/13 11:54:07;;;;;;;8.07;6.63;;;;;;;;;;5071232;28;20388;-74
2022/12/13 11:56:35;;;;;;;11.25;7.25;;;;;;;;;;5071685;28;20029;-75
2022/12/13 11:59:06;;;;;;;11.25;7.57;;;;;;;;;;5071543;28;20020;-74
2022/12/13 12:01:39;;;;;;;9.93;7.82;;;;;;;;;;5071714;28;20032;-75
2022/12/13 12:04:10;;;;;;;10.98;8.45;;;;;;;;;;5071833;28;20028;-75
2022/12/13 12:06:45;;;;;;;10.68;8.77;;;;;;;;;;5071833;28;20039;-76
2022/12/13 12:09:12;;;;;;;10.50;7.57;;;;;;;;;;5072050;28;20029;-76
2022/12/13 12:11:40;;;;;;;9.90;7.55;;;;;;;;;;5071925;28;20107;-77
2022/12/13 12:14:12;;;;;;;9.95;8.18;;;;;;;;;;5071966;28;20364;-77
2022/12/13 12:16:44;;;;;;;9.25;7.40;;;;;;;;;;5072929;28;20027;-77
2022/12/13 12:19:14;;;;;;;8.18;6.68;;;;;;;;;;5073780;28;20111;-75
2022/12/13 12:21:51;;;;;;;10.35;7.57;;;;;;;;;;5076239;28;20178;-75
2022/12/13 12:24:23;;;;;;;10.15;7.97;;;;;;;;;;5058436;28;20052;-75
2022/12/13 12:27:07;;;;;;;9.55;6.10;;;;;;;;;;5074693;28;20189;-75
2022/12/13 12:29:33;;;;;;;9.43;7.10;;;;;;;;;;5074314;28;20464;-76
2022/12/13 12:32:25;;;;;;;13.82;9.55;;;;;;;;;;5074192;28;20028;-76
2022/12/13 12:34:50;;;;;;;12.10;9.00;;;;;;;;;;5073019;28;20047;-77
2022/12/13 12:37:34;;;;;;;13.32;9.82;;;;;;;;;;5073989;28;20029;-77
2022/12/13 12:40:18;;;;;;;13.68;8.85;;;;;;;;;;5057688;28;20522;-77
2022/12/13 12:42:46;;;;;;;12.40;8.40;;;;;;;;;;5076080;28;20123;-77
2022/12/13 12:45:22;;;;;;;11.40;8.65;;;;;;;;;;5074750;28;20483;-77
2022/12/13 12:47:47;;;;;;;11.18;8.30;;;;;;;;;;5075506;28;20472;-77
2022/12/13 12:50:31;;;;;;;12.43;9.07;;;;;;;;;;5075505;28;20074;-77
2022/12/13 12:52:56;;;;;;;8.77;6.95;;;;;;;;;;5074503;28;20036;-77
2022/12/13 12:55:31;;;;;;;12.15;9.05;;;;;;;;;;5075337;28;20563;-77
2022/12/13 12:58:08;;;;;;;11.95;8.40;;;;;;;;;;5073727;28;20036;-78
2022/12/13 13:00:38;;;;;;;10.07;8.35;;;;;;;;;;5074872;28;20032;-72
2022/12/13 13:03:19;;;;;;;12.95;9.45;;;;;;;;;;5074879;28;20025;-78
2022/12/13 13:05:44;;;;;;;;;;;;;;;;;;5075348;28;20029;-78
2022/12/13 13:08:20;;;;;;;11.50;8.77;;;;;;;;;;5074906;28;20274;-81
2022/12/13 13:10:45;;;;;;;11.70;8.80;;;;;;;;;;5074909;28;20274;-78
2022/12/13 13:13:29;;;;;;;15.13;9.50;;;;;;;;;;5056881;28;20027;-79
2022/12/13 13:15:55;;;;;;;14.73;10.05;;;;;;;;;;5075163;28;20047;-78
2022/12/13 13:18:40;;;;;;;14.40;9.32;;;;;;;;;;5074290;28;20028;-78
2022/12/13 13:21:37;;;;;;;12.85;9.93;;;;;;;;;;5074086;28;20040;-78
2022/12/13 13:24:06;;;;;;;16.63;10.23;;;;;;;;;;5073101;28;20123;-78
2022/12/13 13:26:31;;;;;;;14.35;9.20;;;;;;;;;;5073526;28;20020;-78
2022/12/13 13:29:17;;;;;;;13.50;9.85;;;;;;;;;;5107289;28;20479;-78
2022/12/13 13:32:04;;;;;;;13.18;9.77;;;;;;;;;;5057126;28;20078;-79
2022/12/13 13:34:34;;;;;;;15.32;10.57;;;;;;;;;;5074658;28;20036;-79
2022/12/13 13:37:01;;;;;;;13.80;10.10;;;;;;;;;;5074466;28;20027;-79
2022/12/13 13:39:27;;;;;;;16.73;10.30;;;;;;;;;;5073213;28;20020;-78
2022/12/13 13:41:56;;;;;;;13.95;9.80;;;;;;;;;;5073151;28;20101;-78
2022/12/13 13:44:32;;;;;;;14.70;9.52;;;;;;;;;;5056558;28;20063;-78
2022/12/13 13:47:16;;;;;;;11.77;9.27;;;;;;;;;;5073378;28;20037;-76
2022/12/13 13:49:59;;;;;;;11.25;9.25;;;;;;;;;;5073040;28;20033;-76
2022/12/13 13:52:27;;;;;;;12.90;9.80;;;;;;;;;;5073127;28;20028;-76
2022/12/13 13:55:07;;;;;;;8.90;7.55;;;;;;;;;;5072946;28;20043;-76
2022/12/13 13:57:33;;;;;;;;;;;;;;;;;;5073288;28;20024;-77
2022/12/13 14:00:13;;;;;;;13.43;8.37;;;;;;;;;;5072718;28;20007;-77
2022/12/13 14:02:42;;;;;;;9.65;7.78;;;;;;;;;;5072392;28;20124;-77
2022/12/13 14:05:26;;;;;;;13.43;9.38;;;;;;;;;;5072557;28;20434;-77
2022/12/13 14:07:52;;;;;;;20.00;12.25;;;;;;;;;;5073796;28;20040;-78
2022/12/13 14:10:20;;;;;;;17.83;11.73;;;;;;;;;;5073775;28;20433;-78
2022/12/13 14:12:51;;;;;;;18.50;11.40;;;;;;;;;;5072430;28;20075;-78
2022/12/13 14:15:38;;;;;;;12.65;9.27;;;;;;;;;;5073919;28;20029;-78
2022/12/13 14:18:03;;;;;;;11.60;8.85;;;;;;;;;;5056598;28;20028;-77
2022/12/13 14:20:35;;;;;;;11.80;9.13;;;;;;;;;;5056936;28;20416;-78
2022/12/13 14:23:06;;;;;;;11.45;9.00;;;;;;;;;;5074724;28;20122;-78
2022/12/13 14:25:50;;;;;;;10.40;8.32;;;;;;;;;;5074701;28;20086;-77
2022/12/13 14:28:36;;;;;;;12.45;9.20;;;;;;;;;;5073998;28;20102;-76
2022/12/13 14:31:01;;;;;;;10.25;8.45;;;;;;;;;;5072470;28;20487;-77
2022/12/13 14:33:27;;;;;;;13.48;9.18;;;;;;;;;;5074350;28;20060;-77
2022/12/13 14:35:57;;;;;;;11.13;8.80;;;;;;;;;;5071190;28;20051;-77
2022/12/13 14:38:24;;;;;;;11.52;8.98;;;;;;;;;;5060507;28;20037;-77
2022/12/13 14:40:54;;;;;;;15.48;10.40;;;;;;;;;;5053404;28;20112;-77
2022/12/13 14:43:24;;;;;;;10.85;9.15;;;;;;;;;;5053353;28;20048;-77
2022/12/13 14:45:59;;;;;;;12.07;8.80;;;;;;;;;;5036333;28;20029;-77
2022/12/13 14:48:24;;;;;;;11.48;8.63;;;;;;;;;;5051832;28;20040;-77
2022/12/13 14:50:51;;;;;;;8.93;7.72;;;;;;;;;;5053793;28;20021;-77
2022/12/13 14:53:36;;;;;;;10.18;8.55;;;;;;;;;;5068783;28;20108;-77
2022/12/13 14:56:02;;;;;;;11.60;8.40;;;;;;;;;;5050617;28;20037;-77
2022/12/13 14:58:29;;;;;;;10.38;8.93;;;;;;;;;;5067959;28;20412;-77
2022/12/13 15:00:54;;;;;;;11.88;8.95;;;;;;;;;;5051339;28;20098;-77
2022/12/13 15:03:22;;;;;;;12.15;9.25;;;;;;;;;;5052773;28;20104;-77
2022/12/13 15:05:51;;;;;;;10.70;9.05;;;;;;;;;;5051084;28;20029;-77
2022/12/13 15:08:20;;;;;;;11.38;8.88;;;;;;;;;;5052379;28;20269;-77